createdAt,value
2022-08-17T00:01:52.166Z,31.73
2022-08-17T00:04:22.435Z,33.75
2022-08-17T00:06:50.787Z,28.63
2022-08-17T00:09:18.653Z,28.35
2022-08-17T00:12:41.391Z,28.92
2022-08-17T00:14:36.042Z,25.90
2022-08-17T00:17:04.687Z,26.38
2022-08-17T00:19:34.083Z,25.88
2022-08-17T00:22:33.564Z,26.35
2022-08-17T00:24:50.136Z,27.67
2022-08-17T00:27:17.302Z,25.50
2022-08-17T00:29:45.785Z,25.42
2022-08-17T00:33:12.651Z,26.42
2022-08-17T00:35:04.510Z,24.63
2022-08-17T00:37:31.855Z,30.00
2022-08-17T00:39:59.499Z,25.02
2022-08-17T00:42:30.908Z,27.30
2022-08-17T00:44:58.781Z,28.05
2022-08-17T00:47:26.286Z,27.25
2022-08-17T00:49:53.960Z,26.35
2022-08-17T00:52:28.467Z,27.08
2022-08-17T00:54:56.130Z,29.55
2022-08-17T00:57:25.974Z,26.98
2022-08-17T01:00:01.886Z,26.15
2022-08-17T01:02:34.360Z,26.77
2022-08-17T01:05:12.395Z,27.35
2022-08-17T01:07:41.854Z,25.33
2022-08-17T01:10:58.125Z,24.77
2022-08-17T01:13:00.374Z,26.27
2022-08-17T01:15:27.760Z,26.08
2022-08-17T01:17:54.847Z,26.50
2022-08-17T01:20:22.144Z,26.20
2022-08-17T01:22:51.055Z,26.27
2022-08-17T01:25:19.291Z,25.92
2022-08-17T01:27:47.124Z,26.77
2022-08-17T01:30:59.034Z,25.40
2022-08-17T01:33:02.791Z,27.58
2022-08-17T01:35:29.988Z,24.98
2022-08-17T01:37:58.494Z,29.23
2022-08-17T01:40:31.239Z,25.40
2022-08-17T01:43:01.530Z,27.27
2022-08-17T01:45:30.489Z,26.08
2022-08-17T01:47:57.703Z,24.55
2022-08-17T01:50:27.418Z,27.73
2022-08-17T01:52:59.926Z,25.23
2022-08-17T01:55:32.379Z,26.73
2022-08-17T01:58:00.602Z,25.98
2022-08-17T02:00:47.842Z,27.20
2022-08-17T02:03:18.094Z,25.92
2022-08-17T02:05:46.374Z,27.25
2022-08-17T02:08:20.029Z,29.00
2022-08-17T02:10:48.581Z,26.65
2022-08-17T02:13:17.051Z,26.25
2022-08-17T02:15:44.900Z,29.92
2022-08-17T02:18:14.138Z,26.42
2022-08-17T02:20:42.961Z,25.55
2022-08-17T02:23:12.491Z,26.17
2022-08-17T02:25:44.606Z,25.90
2022-08-17T02:28:12.363Z,26.15
2022-08-17T02:31:02.028Z,31.40
2022-08-17T02:33:42.463Z,27.00
2022-08-17T02:36:12.229Z,28.95
2022-08-17T02:38:40.625Z,26.98
2022-08-17T02:41:09.102Z,27.25
2022-08-17T02:43:36.741Z,27.13
2022-08-17T02:46:03.848Z,27.45
2022-08-17T02:48:32.055Z,28.88
2022-08-17T02:50:59.831Z,28.67
2022-08-17T02:53:27.052Z,26.52
2022-08-17T02:55:54.240Z,31.88
2022-08-17T02:58:34.363Z,29.83
2022-08-17T03:01:04.040Z,32.25
2022-08-17T03:03:31.168Z,33.03
2022-08-17T03:05:58.573Z,31.45
2022-08-17T03:08:25.781Z,30.17
2022-08-17T03:10:53.623Z,29.52
2022-08-17T03:13:22.416Z,30.05
2022-08-17T03:15:50.417Z,29.00
2022-08-17T03:18:25.321Z,33.20
2022-08-17T03:20:55.466Z,30.38
2022-08-17T03:23:23.669Z,31.35
2022-08-17T03:25:53.510Z,30.42
2022-08-17T03:28:22.983Z,29.98
2022-08-17T03:30:51.511Z,34.17
2022-08-17T03:33:19.828Z,33.22
2022-08-17T03:35:47.309Z,34.03
2022-08-17T03:38:17.079Z,37.25
2022-08-17T03:40:58.989Z,32.83
2022-08-17T03:43:31.346Z,32.35
2022-08-17T03:46:27.689Z,32.15
2022-08-17T03:49:18.273Z,29.55
2022-08-17T03:52:03.651Z,29.17
2022-08-17T03:54:49.191Z,38.10
2022-08-17T03:57:16.639Z,30.60
2022-08-17T03:59:45.363Z,31.70
2022-08-17T04:02:17.720Z,31.08
2022-08-17T04:04:45.006Z,30.98
2022-08-17T04:07:12.332Z,31.17
2022-08-17T04:09:39.642Z,30.60
2022-08-17T04:12:07.135Z,31.35
2022-08-17T04:14:46.514Z,30.60
2022-08-17T04:17:24.157Z,31.45
2022-08-17T04:19:51.457Z,31.75
2022-08-17T04:22:31.454Z,31.60
2022-08-17T04:25:16.392Z,33.40
2022-08-17T04:27:43.553Z,31.00
2022-08-17T04:30:11.773Z,30.60
2022-08-17T04:33:03.494Z,32.53
2022-08-17T04:35:36.045Z,34.10
2022-08-17T04:38:03.146Z,26.63
2022-08-17T04:41:05.665Z,27.60
2022-08-17T04:43:34.014Z,27.00
2022-08-17T04:46:03.208Z,25.35
2022-08-17T04:48:36.881Z,25.90
2022-08-17T04:51:19.119Z,25.52
2022-08-17T04:53:54.551Z,26.65
2022-08-17T04:56:23.530Z,26.25
2022-08-17T04:58:52.567Z,24.42
2022-08-17T05:01:24.077Z,23.63
2022-08-17T05:03:54.052Z,23.25
2022-08-17T05:06:21.989Z,23.10
2022-08-17T05:08:49.631Z,21.40
2022-08-17T05:11:17.030Z,23.83
2022-08-17T05:13:44.902Z,22.00
2022-08-17T05:16:12.889Z,22.02
2022-08-17T05:18:40.138Z,22.33
2022-08-17T05:21:09.082Z,21.45
2022-08-17T05:23:42.524Z,20.65
2022-08-17T05:26:19.827Z,21.13
2022-08-17T05:28:58.545Z,20.25
2022-08-17T05:31:28.911Z,22.00
2022-08-17T05:33:56.477Z,21.13
2022-08-17T05:36:41.831Z,21.25
2022-08-17T05:39:15.850Z,21.00
2022-08-17T05:41:46.900Z,19.98
2022-08-17T05:44:14.349Z,22.05
2022-08-17T05:46:47.724Z,24.33
2022-08-17T05:49:18.128Z,21.63
2022-08-17T05:52:03.385Z,21.55
2022-08-17T05:54:41.559Z,22.13
2022-08-17T05:57:30.643Z,23.40
2022-08-17T06:00:10.626Z,21.85
2022-08-17T06:03:00.785Z,22.70
2022-08-17T06:05:40.463Z,23.45
2022-08-17T06:08:18.738Z,23.98
2022-08-17T06:10:53.142Z,23.33
2022-08-17T06:13:30.696Z,24.50
2022-08-17T06:16:03.125Z,23.10
2022-08-17T06:18:36.508Z,26.30
2022-08-17T06:21:07.269Z,26.25
2022-08-17T06:23:39.232Z,23.80
2022-08-17T06:26:12.911Z,24.77
2022-08-17T06:28:46.202Z,25.75
2022-08-17T06:31:27.530Z,24.30
2022-08-17T06:33:56.947Z,24.48
2022-08-17T06:36:40.585Z,25.83
2022-08-17T06:39:28.151Z,25.88
2022-08-17T06:42:05.658Z,24.70
2022-08-17T06:44:44.766Z,24.88
2022-08-17T06:47:29.948Z,26.65
2022-08-17T06:50:14.678Z,24.33
2022-08-17T06:52:55.179Z,24.38
2022-08-17T06:55:33.186Z,26.55
2022-08-17T06:58:16.431Z,24.02
2022-08-17T07:00:47.638Z,25.75
2022-08-17T07:05:51.415Z,22.38
2022-08-17T07:08:35.158Z,24.42
2022-08-17T07:11:07.745Z,25.00
2022-08-17T07:13:44.563Z,24.88
2022-08-17T07:16:23.817Z,23.60
2022-08-17T07:18:53.222Z,24.23
2022-08-17T07:24:30.716Z,25.27
2022-08-17T07:29:50.849Z,26.00
2022-08-17T07:32:23.355Z,26.92
2022-08-17T07:35:11.507Z,30.05
2022-08-17T07:37:40.501Z,26.63
2022-08-17T07:40:27.173Z,27.30
2022-08-17T07:43:21.943Z,24.95
2022-08-17T07:46:32.517Z,28.38
2022-08-17T07:49:33.809Z,25.77
2022-08-17T07:52:47.433Z,26.50
2022-08-17T07:55:30.724Z,25.17
2022-08-17T07:58:01.879Z,25.42
2022-08-17T08:00:32.336Z,25.73
2022-08-17T08:05:49.371Z,26.45
2022-08-17T08:08:40.775Z,27.33
2022-08-17T08:11:10.036Z,26.20
2022-08-17T08:13:42.514Z,27.92
2022-08-17T08:16:26.499Z,27.08
2022-08-17T08:18:57.587Z,26.73
2022-08-17T08:21:35.444Z,28.05
2022-08-17T08:24:19.793Z,28.88
2022-08-17T08:26:58.515Z,25.88
2022-08-17T08:29:35.575Z,26.20
2022-08-17T08:32:13.474Z,28.08
2022-08-17T08:35:01.682Z,27.83
2022-08-17T08:37:43.623Z,25.63
2022-08-17T08:40:28.319Z,28.02
2022-08-17T08:43:10.343Z,29.10
2022-08-17T08:45:46.076Z,25.80
2022-08-17T08:48:53.678Z,26.77
2022-08-17T08:51:18.661Z,26.45
2022-08-17T08:53:55.385Z,28.38
2022-08-17T08:56:31.666Z,26.95
2022-08-17T08:59:07.638Z,27.63
2022-08-17T09:01:50.973Z,24.02
2022-08-17T09:05:02.815Z,25.38
2022-08-17T09:07:34.791Z,27.83
2022-08-17T09:10:10.255Z,26.25
2022-08-17T09:12:47.627Z,33.00
2022-08-17T09:15:19.192Z,38.75
2022-08-17T09:20:49.596Z,32.10
2022-08-17T09:23:28.042Z,35.90
2022-08-17T09:25:59.914Z,46.97
2022-08-17T09:28:33.963Z,46.10
2022-08-17T09:31:06.635Z,38.92
2022-08-17T09:33:40.223Z,38.65
2022-08-17T09:36:14.726Z,40.25
2022-08-17T09:38:49.304Z,34.53
2022-08-17T09:45:17.537Z,28.25
2022-08-17T09:47:50.592Z,27.58
2022-08-17T09:51:05.224Z,25.67
2022-08-17T09:53:11.935Z,26.50
2022-08-17T09:56:03.599Z,23.75
2022-08-17T09:58:42.208Z,21.45
2022-08-17T10:04:09.206Z,19.75
2022-08-17T10:06:47.930Z,18.52
2022-08-17T10:09:21.057Z,18.27
2022-08-17T10:12:12.182Z,19.83
2022-08-17T10:14:55.065Z,16.98
2022-08-17T10:17:31.424Z,17.58
2022-08-17T10:20:03.085Z,16.52
2022-08-17T10:22:54.984Z,19.08
2022-08-17T10:25:54.612Z,17.73
2022-08-17T10:28:29.722Z,19.40
2022-08-17T10:41:33.129Z,19.45
2022-08-17T10:51:59.249Z,19.20
2022-08-17T10:54:47.299Z,21.00
2022-08-17T10:57:38.271Z,19.67
2022-08-17T11:00:10.518Z,20.45
2022-08-17T11:02:49.996Z,20.45
2022-08-17T11:05:43.958Z,22.35
2022-08-17T11:08:45.658Z,22.60
2022-08-17T11:11:36.108Z,21.88
2022-08-17T11:14:24.100Z,22.73
2022-08-17T11:17:08.932Z,23.95
2022-08-17T11:20:06.992Z,23.35
2022-08-17T11:23:10.077Z,22.92
2022-08-17T11:25:40.142Z,23.60
2022-08-17T11:28:14.965Z,25.05
2022-08-17T11:30:47.024Z,22.13
2022-08-17T11:33:55.126Z,23.55
2022-08-17T11:36:37.714Z,24.55
2022-08-17T11:44:37.828Z,27.55
2022-08-17T11:47:52.953Z,28.75
2022-08-17T11:51:01.859Z,29.27
2022-08-17T11:54:21.450Z,33.65
2022-08-17T11:56:49.789Z,28.30
2022-08-17T11:59:58.715Z,32.27
2022-08-17T12:02:36.116Z,29.20
2022-08-17T12:05:27.638Z,31.15
2022-08-17T12:08:19.802Z,32.70
2022-08-17T12:16:00.436Z,29.65
2022-08-17T12:18:31.331Z,28.80
2022-08-17T12:21:27.645Z,30.38
2022-08-17T12:24:06.572Z,29.10
2022-08-17T12:26:36.152Z,28.92
2022-08-17T12:29:09.361Z,28.00
2022-08-17T12:31:48.159Z,30.55
2022-08-17T12:36:47.711Z,36.33
2022-08-17T12:41:50.901Z,30.80
2022-08-17T12:44:23.196Z,33.63
2022-08-17T12:52:01.870Z,33.30
2022-08-17T12:54:35.818Z,37.45
2022-08-17T12:57:09.442Z,39.60
2022-08-17T13:02:16.917Z,42.08
2022-08-17T13:04:44.192Z,42.63
2022-08-17T13:07:12.244Z,41.30
2022-08-17T13:09:40.461Z,45.97
2022-08-17T13:12:08.151Z,44.88
2022-08-17T13:14:35.663Z,41.60
2022-08-17T13:17:09.875Z,37.50
2022-08-17T13:19:48.018Z,37.92
2022-08-17T13:22:15.557Z,41.00
2022-08-17T13:24:53.022Z,37.85
2022-08-17T13:27:22.678Z,38.55
2022-08-17T13:29:55.750Z,37.72
2022-08-17T13:32:36.057Z,38.67
2022-08-17T13:35:32.956Z,37.93
2022-08-17T13:38:09.365Z,42.03
2022-08-17T13:40:41.706Z,35.85
2022-08-17T13:43:10.252Z,35.88
2022-08-17T13:45:50.873Z,36.97
2022-08-17T13:48:31.993Z,39.42
2022-08-17T13:51:22.900Z,39.20
2022-08-17T13:54:03.981Z,40.45
2022-08-17T13:56:39.927Z,40.90
2022-08-17T13:59:11.722Z,38.42
2022-08-17T14:01:40.891Z,42.00
2022-08-17T14:04:12.721Z,42.45
2022-08-17T14:06:51.918Z,41.40
2022-08-17T14:14:16.571Z,40.88
2022-08-17T14:16:44.029Z,42.35
2022-08-17T14:19:16.154Z,41.17
2022-08-17T14:21:46.468Z,42.85
2022-08-17T14:24:22.254Z,43.30
2022-08-17T14:26:50.315Z,47.35
2022-08-17T14:29:22.054Z,47.00
2022-08-17T14:31:54.153Z,44.80
2022-08-17T14:34:24.036Z,44.35
2022-08-17T14:36:52.275Z,48.95
2022-08-17T14:39:20.096Z,50.05
2022-08-17T14:44:15.457Z,56.30
2022-08-17T14:46:44.259Z,48.17
2022-08-17T14:49:12.999Z,50.03
2022-08-17T14:51:43.503Z,50.72
2022-08-17T14:54:11.721Z,47.40
2022-08-17T14:57:11.552Z,44.58
2022-08-17T14:59:46.309Z,48.08
2022-08-17T15:02:13.774Z,45.97
2022-08-17T15:04:47.609Z,47.60
2022-08-17T15:07:16.796Z,41.08
2022-08-17T15:09:46.483Z,41.72
2022-08-17T15:14:43.941Z,40.75
2022-08-17T15:17:11.973Z,40.28
2022-08-17T15:19:39.067Z,40.63
2022-08-17T15:22:06.767Z,42.90
2022-08-17T15:24:35.268Z,41.97
2022-08-17T15:27:02.548Z,38.38
2022-08-17T15:29:29.865Z,39.97
2022-08-17T15:32:00.556Z,40.83
2022-08-17T15:34:28.064Z,40.40
2022-08-17T15:36:55.410Z,39.90
2022-08-17T15:39:22.712Z,43.85
2022-08-17T15:41:58.640Z,41.00
2022-08-17T15:44:32.471Z,44.33
2022-08-17T15:47:01.960Z,43.95
2022-08-17T15:49:29.170Z,42.20
2022-08-17T15:51:56.258Z,40.35
2022-08-17T15:54:23.584Z,42.13
2022-08-17T15:56:54.931Z,41.85
2022-08-17T15:59:23.966Z,43.63
2022-08-17T16:03:01.656Z,43.13
2022-08-17T16:04:44.237Z,41.33
2022-08-17T16:07:13.207Z,43.33
2022-08-17T16:09:42.121Z,41.33
2022-08-17T16:12:12.861Z,43.22
2022-08-17T16:14:40.150Z,46.28
2022-08-17T16:17:29.613Z,43.45
2022-08-17T16:19:57.217Z,42.38
2022-08-17T16:22:39.976Z,47.17
2022-08-17T16:25:22.445Z,47.15
2022-08-17T16:27:55.159Z,43.45
2022-08-17T16:30:43.359Z,43.60
2022-08-17T16:37:45.686Z,42.47
2022-08-17T16:42:43.911Z,42.55
2022-08-17T16:45:28.225Z,39.45
2022-08-17T16:48:01.803Z,39.88
2022-08-17T16:50:34.989Z,40.53
2022-08-17T16:53:10.802Z,40.88
2022-08-17T16:55:41.315Z,40.45
2022-08-17T16:58:11.873Z,41.78
2022-08-17T17:00:39.734Z,43.70
2022-08-17T17:03:19.929Z,41.97
2022-08-17T17:06:03.804Z,42.55
2022-08-17T17:08:43.668Z,41.90
2022-08-17T17:42:07.575Z,46.88
2022-08-17T17:44:39.606Z,42.58
2022-08-17T17:47:07.506Z,44.85
2022-08-17T17:49:38.274Z,43.33
2022-08-17T17:52:15.525Z,43.28
2022-08-17T17:55:02.599Z,47.27
2022-08-17T17:57:44.993Z,47.90
2022-08-17T18:00:16.673Z,41.65
2022-08-17T18:03:00.054Z,49.38
2022-08-17T18:05:51.823Z,50.80
2022-08-17T18:08:35.664Z,55.58
2022-08-17T18:11:24.475Z,55.38
2022-08-17T18:14:05.532Z,55.17
2022-08-17T18:16:36.852Z,56.75
2022-08-17T18:19:04.142Z,55.70
2022-08-17T18:21:44.141Z,60.33
2022-08-17T18:24:12.935Z,54.95
2022-08-17T18:26:50.390Z,53.38
2022-08-17T18:29:42.860Z,55.13
2022-08-17T18:32:33.820Z,57.15
2022-08-17T18:35:17.869Z,52.72
2022-08-17T18:37:47.741Z,57.28
2022-08-17T18:40:39.201Z,53.95
2022-08-17T18:43:27.312Z,57.05
2022-08-17T18:46:28.737Z,59.03
2022-08-17T18:48:59.473Z,59.85
2022-08-17T18:51:40.752Z,57.70
2022-08-17T18:54:20.122Z,52.95
2022-08-17T18:56:54.359Z,53.47
2022-08-17T18:59:34.614Z,53.88
2022-08-17T19:02:45.802Z,55.63
2022-08-17T19:05:13.314Z,61.25
2022-08-17T19:07:43.941Z,64.93
2022-08-17T19:10:22.886Z,64.75
2022-08-17T19:13:00.431Z,66.53
2022-08-17T19:15:37.948Z,68.00
2022-08-17T19:44:35.862Z,49.13
2022-08-17T19:47:12.175Z,48.55
2022-08-17T19:49:47.465Z,50.30
2022-08-17T19:52:37.552Z,50.28
2022-08-17T19:55:10.915Z,47.72
2022-08-17T19:57:49.094Z,50.97
2022-08-17T20:00:18.321Z,48.60
2022-08-17T20:02:54.559Z,48.10
2022-08-17T20:05:25.933Z,52.58
2022-08-17T20:07:56.858Z,53.50
2022-08-17T20:10:33.872Z,60.55
2022-08-17T20:13:08.483Z,54.67
2022-08-17T20:15:39.959Z,49.28
2022-08-17T20:18:17.577Z,53.25
2022-08-17T20:20:55.852Z,49.17
2022-08-17T20:23:33.540Z,49.38
2022-08-17T20:26:10.798Z,50.90
2022-08-17T20:29:14.126Z,48.58
2022-08-17T20:31:47.300Z,51.22
2022-08-17T20:47:10.416Z,54.30
2022-08-17T20:49:50.360Z,54.03
2022-08-17T20:57:46.449Z,58.53
2022-08-17T21:10:58.150Z,57.70
2022-08-17T21:13:48.603Z,68.60
2022-08-17T21:16:41.177Z,61.38
2022-08-17T21:19:22.221Z,59.22
2022-08-17T22:12:31.653Z,46.28
2022-08-17T22:15:00.965Z,49.08
2022-08-17T22:17:29.922Z,51.10
2022-08-17T22:20:00.384Z,51.85
2022-08-17T22:22:32.549Z,52.22
2022-08-17T22:25:02.985Z,45.13
2022-08-17T22:27:55.554Z,44.28
2022-08-17T22:30:30.389Z,39.88
2022-08-17T22:32:58.669Z,43.45
2022-08-17T22:40:51.857Z,39.08
2022-08-17T23:37:02.204Z,36.03
2022-08-17T23:39:29.312Z,39.60
2022-08-17T23:41:57.326Z,36.30
2022-08-17T23:44:24.546Z,41.67
2022-08-17T23:56:47.653Z,32.70
2022-08-17T23:59:15.748Z,35.15
